createdAt,value
2017-03-11T00:00:32.061Z,0
2017-03-11T00:01:42.346Z,0
2017-03-11T00:02:52.989Z,0
2017-03-11T00:04:03.686Z,0
2017-03-11T00:05:14.344Z,0
2017-03-11T00:06:25.402Z,0
2017-03-11T00:07:35.291Z,0
2017-03-11T00:08:45.194Z,0
2017-03-11T00:09:55.104Z,0
2017-03-11T00:11:05.388Z,0
2017-03-11T00:12:16.290Z,0
2017-03-11T00:13:26.615Z,0
2017-03-11T00:14:36.936Z,0
2017-03-11T00:15:46.818Z,0
2017-03-11T00:16:57.466Z,0
2017-03-11T00:18:08.426Z,0
2017-03-11T00:19:18.726Z,0
2017-03-11T00:20:29.419Z,0
2017-03-11T00:21:39.305Z,0
2017-03-11T00:22:49.594Z,0
2017-03-11T00:24:00.599Z,0
2017-03-11T00:25:11.262Z,0
2017-03-11T00:26:21.536Z,0
2017-03-11T00:27:31.445Z,0
2017-03-11T00:28:41.748Z,0
2017-03-11T00:29:52.541Z,0
2017-03-11T00:31:02.821Z,0
2017-03-11T00:32:13.128Z,0
2017-03-11T00:33:23.815Z,0
2017-03-11T00:34:34.505Z,0
2017-03-11T00:35:45.339Z,0
2017-03-11T00:36:55.632Z,0
2017-03-11T00:38:05.530Z,0
2017-03-11T00:39:15.837Z,0
2017-03-11T00:40:26.519Z,0
2017-03-11T00:41:37.541Z,0
2017-03-11T00:42:48.198Z,0
2017-03-11T00:43:58.858Z,0
2017-03-11T00:45:09.121Z,0
2017-03-11T00:46:19.419Z,0
2017-03-11T00:47:30.004Z,0
2017-03-11T00:48:40.660Z,0
2017-03-11T00:49:50.534Z,0
2017-03-11T00:51:00.808Z,0
2017-03-11T00:52:11.463Z,0
2017-03-11T00:53:22.382Z,0
2017-03-11T00:54:31.487Z,0
2017-03-11T00:55:41.773Z,0
2017-03-11T00:56:51.675Z,0
2017-03-11T00:58:01.963Z,0
2017-03-11T00:59:12.409Z,0
2017-03-11T01:00:22.293Z,0
2017-03-11T01:01:32.604Z,0
2017-03-11T01:02:42.889Z,0
2017-03-11T01:03:53.575Z,0
2017-03-11T01:05:04.214Z,0
2017-03-11T01:06:14.893Z,0
2017-03-11T01:07:25.158Z,0
2017-03-11T01:08:35.046Z,0
2017-03-11T01:09:45.348Z,0
2017-03-11T01:10:56.165Z,0
2017-03-11T01:12:06.453Z,0
2017-03-11T01:13:16.372Z,0
2017-03-11T01:14:26.251Z,0
2017-03-11T01:15:36.557Z,0
2017-03-11T01:16:47.000Z,0
2017-03-11T01:17:57.651Z,0
2017-03-11T01:19:07.968Z,0
2017-03-11T01:20:18.287Z,0
2017-03-11T01:21:28.178Z,0
2017-03-11T01:22:39.208Z,0
2017-03-11T01:23:49.900Z,0
2017-03-11T01:25:00.213Z,0
2017-03-11T01:26:10.163Z,0
2017-03-11T01:27:20.099Z,0
2017-03-11T01:28:30.251Z,0
2017-03-11T01:29:40.557Z,0
2017-03-11T01:30:50.871Z,0
2017-03-11T01:32:00.801Z,0
2017-03-11T01:33:10.729Z,0
2017-03-11T01:34:20.920Z,0
2017-03-11T01:35:31.233Z,0
2017-03-11T01:36:41.920Z,0
2017-03-11T01:37:52.577Z,0
2017-03-11T01:39:03.245Z,0
2017-03-11T01:40:13.222Z,0
2017-03-11T01:41:23.903Z,0
2017-03-11T01:42:34.610Z,0
2017-03-11T01:43:44.507Z,0
2017-03-11T01:44:54.788Z,0
2017-03-11T01:46:05.316Z,0
2017-03-11T01:47:15.598Z,0
2017-03-11T01:48:25.472Z,0
2017-03-11T01:49:36.159Z,0
2017-03-11T01:50:46.439Z,0
2017-03-11T01:51:57.089Z,0
2017-03-11T01:53:07.758Z,0
2017-03-11T01:54:18.429Z,0
2017-03-11T01:55:29.103Z,0
2017-03-11T01:56:39.381Z,0
2017-03-11T01:57:50.165Z,0
2017-03-11T01:59:00.854Z,0
2017-03-11T02:00:11.123Z,0
2017-03-11T02:01:21.003Z,0
2017-03-11T02:02:31.299Z,0
2017-03-11T02:03:42.083Z,0
2017-03-11T02:04:51.982Z,0
2017-03-11T02:06:02.642Z,0
2017-03-11T02:07:12.936Z,0
2017-03-11T02:08:23.214Z,0
2017-03-11T02:09:33.377Z,0
2017-03-11T02:10:44.055Z,0
2017-03-11T02:11:54.729Z,0
2017-03-11T02:13:05.014Z,0
2017-03-11T02:14:15.681Z,0
2017-03-11T02:15:26.266Z,0
2017-03-11T02:16:36.946Z,0
2017-03-11T02:17:47.235Z,0
2017-03-11T02:18:57.503Z,0
2017-03-11T02:20:07.792Z,0
2017-03-11T02:21:18.308Z,0
2017-03-11T02:22:28.578Z,0
2017-03-11T02:23:38.505Z,0
2017-03-11T02:24:48.398Z,0
2017-03-11T02:25:58.671Z,0
2017-03-11T02:27:09.484Z,0
2017-03-11T02:28:20.154Z,0
2017-03-11T02:29:30.828Z,0
2017-03-11T02:30:41.515Z,0
2017-03-11T02:31:52.167Z,0
2017-03-11T02:33:03.104Z,0
2017-03-11T02:34:13.762Z,0
2017-03-11T02:35:24.325Z,0
2017-03-11T02:36:34.632Z,0
2017-03-11T02:37:44.134Z,0
2017-03-11T02:38:54.290Z,0
2017-03-11T02:40:04.605Z,0
2017-03-11T02:41:14.110Z,0
2017-03-11T02:42:24.385Z,0
2017-03-11T02:43:35.076Z,0
2017-03-11T02:44:45.579Z,0
2017-03-11T02:45:56.254Z,0
2017-03-11T02:47:06.927Z,0
2017-03-11T02:48:17.590Z,0
2017-03-11T02:49:28.249Z,0
2017-03-11T02:50:38.839Z,0
2017-03-11T02:51:49.514Z,0
2017-03-11T02:52:59.804Z,0
2017-03-11T02:54:10.088Z,0
2017-03-11T02:55:20.753Z,0
2017-03-11T02:56:30.887Z,0
2017-03-11T02:57:41.577Z,0
2017-03-11T02:58:51.895Z,0
2017-03-11T03:00:02.560Z,0
2017-03-11T03:01:12.867Z,0
2017-03-11T03:02:23.685Z,0
2017-03-11T03:03:33.970Z,0
2017-03-11T03:04:44.258Z,0
2017-03-11T03:05:54.947Z,0
2017-03-11T03:07:05.234Z,0
2017-03-11T03:08:15.861Z,0
2017-03-11T03:09:26.528Z,0
2017-03-11T03:10:37.194Z,0
2017-03-11T03:11:47.864Z,0
2017-03-11T03:12:58.162Z,0
2017-03-11T03:14:09.185Z,0
2017-03-11T03:15:19.465Z,0
2017-03-11T03:16:29.761Z,0
2017-03-11T03:17:39.661Z,0
2017-03-11T03:18:50.362Z,0
2017-03-11T03:20:00.813Z,0
2017-03-11T03:21:10.733Z,0
2017-03-11T03:22:20.253Z,0
2017-03-11T03:23:30.556Z,0
2017-03-11T03:24:40.435Z,0
2017-03-11T03:25:51.071Z,0
2017-03-11T03:27:01.730Z,0
2017-03-11T03:28:12.385Z,0
2017-03-11T03:29:22.689Z,0
2017-03-11T03:30:32.582Z,0
2017-03-11T03:31:43.638Z,0
2017-03-11T03:32:53.902Z,0
2017-03-11T03:34:04.236Z,0
2017-03-11T03:35:14.503Z,0
2017-03-11T03:36:25.177Z,0
2017-03-11T03:37:35.035Z,0
2017-03-11T03:38:45.703Z,0
2017-03-11T03:39:55.981Z,0
2017-03-11T03:41:06.668Z,0
2017-03-11T03:42:16.967Z,0
2017-03-11T03:43:27.436Z,0
2017-03-11T03:44:37.356Z,0
2017-03-11T03:45:47.625Z,0
2017-03-11T03:46:57.915Z,0
2017-03-11T03:48:08.198Z,0
2017-03-11T03:49:19.237Z,0
2017-03-11T03:50:29.933Z,0
2017-03-11T03:51:40.615Z,0
2017-03-11T03:52:51.288Z,0
2017-03-11T03:54:01.592Z,0
2017-03-11T03:55:11.422Z,0
2017-03-11T03:56:21.300Z,0
2017-03-11T03:57:31.977Z,0
2017-03-11T03:58:42.656Z,0
2017-03-11T03:59:52.958Z,0
2017-03-11T04:01:03.190Z,0
2017-03-11T04:02:13.091Z,0
2017-03-11T04:03:22.600Z,0
2017-03-11T04:04:32.493Z,0
2017-03-11T04:05:42.399Z,0
2017-03-11T04:06:52.994Z,0
2017-03-11T04:08:03.686Z,0
2017-03-11T04:09:14.367Z,0
2017-03-11T04:10:24.656Z,0
2017-03-11T04:11:34.945Z,0
2017-03-11T04:12:45.200Z,0
2017-03-11T04:13:55.474Z,0
2017-03-11T04:15:05.781Z,0
2017-03-11T04:16:16.080Z,0
2017-03-11T04:17:26.382Z,0
2017-03-11T04:18:37.431Z,0
2017-03-11T04:19:47.729Z,0
2017-03-11T04:20:58.028Z,0
2017-03-11T04:22:07.942Z,0
2017-03-11T04:23:17.818Z,0
2017-03-11T04:24:28.589Z,0
2017-03-11T04:25:39.268Z,0
2017-03-11T04:26:49.574Z,0
2017-03-11T04:27:59.466Z,0
2017-03-11T04:29:10.149Z,0
2017-03-11T04:30:21.192Z,0
2017-03-11T04:31:31.879Z,0
2017-03-11T04:32:42.169Z,0
2017-03-11T04:33:52.443Z,0
2017-03-11T04:35:02.747Z,0
2017-03-11T04:36:13.664Z,0
2017-03-11T04:37:23.928Z,0
2017-03-11T04:38:34.219Z,0
2017-03-11T04:39:44.895Z,0
2017-03-11T04:40:55.560Z,0
2017-03-11T04:42:06.539Z,0
2017-03-11T04:43:17.223Z,0
2017-03-11T04:44:27.932Z,0
2017-03-11T04:45:38.207Z,0
2017-03-11T04:46:48.103Z,0
2017-03-11T04:47:57.367Z,0
2017-03-11T04:49:07.655Z,0
2017-03-11T04:50:17.151Z,0
2017-03-11T04:51:27.439Z,0
2017-03-11T04:52:38.119Z,0
2017-03-11T04:53:48.890Z,0
2017-03-11T04:54:59.157Z,0
2017-03-11T04:56:09.437Z,0
2017-03-11T04:57:20.113Z,0
2017-03-11T04:58:30.791Z,0
2017-03-11T04:59:41.393Z,0
2017-03-11T05:00:51.702Z,0
2017-03-11T05:02:01.582Z,0
2017-03-11T05:03:11.890Z,0
2017-03-11T05:04:22.560Z,0
2017-03-11T05:05:33.100Z,0
2017-03-11T05:06:43.389Z,0
2017-03-11T05:07:53.684Z,0
2017-03-11T05:09:03.615Z,0
2017-03-11T05:10:13.947Z,0
2017-03-11T05:11:24.564Z,0
2017-03-11T05:12:35.229Z,0
2017-03-11T05:13:45.917Z,0
2017-03-11T05:14:56.622Z,0
2017-03-11T05:16:06.522Z,0
2017-03-11T05:17:16.721Z,0
2017-03-11T05:18:27.016Z,0
2017-03-11T05:19:37.291Z,0
2017-03-11T05:20:47.953Z,0
2017-03-11T05:21:58.227Z,0
2017-03-11T05:23:09.166Z,0
2017-03-11T05:24:19.081Z,0
2017-03-11T05:25:29.760Z,0
2017-03-11T05:26:40.499Z,0
2017-03-11T05:27:50.791Z,0
2017-03-11T05:29:01.281Z,0
2017-03-11T05:30:11.550Z,0
2017-03-11T05:31:21.857Z,0
2017-03-11T05:32:32.536Z,0
2017-03-11T05:33:42.836Z,0
2017-03-11T05:34:53.438Z,0
2017-03-11T05:36:04.121Z,0
2017-03-11T05:37:14.779Z,0
2017-03-11T05:38:25.078Z,0
2017-03-11T05:39:35.362Z,0
2017-03-11T05:40:46.379Z,0
2017-03-11T05:41:57.060Z,0
2017-03-11T05:43:07.374Z,0
2017-03-11T05:44:17.975Z,0
2017-03-11T05:45:27.862Z,0
2017-03-11T05:46:37.849Z,0
2017-03-11T05:47:47.759Z,0
2017-03-11T05:48:57.672Z,0
2017-03-11T05:50:07.961Z,0
2017-03-11T05:51:18.260Z,0
2017-03-11T05:52:28.890Z,0
2017-03-11T05:53:39.170Z,0
2017-03-11T05:54:49.844Z,0
2017-03-11T05:56:00.825Z,0
2017-03-11T05:57:11.095Z,0
2017-03-11T05:58:22.159Z,0
2017-03-11T05:59:32.062Z,0
2017-03-11T06:00:42.363Z,0
2017-03-11T06:01:53.065Z,0
2017-03-11T06:03:03.375Z,0
2017-03-11T06:04:14.302Z,0
2017-03-11T06:05:24.976Z,0
2017-03-11T06:06:34.480Z,0
2017-03-11T06:07:45.147Z,5
2017-03-11T06:08:55.812Z,5
2017-03-11T06:10:06.188Z,5
2017-03-11T06:11:16.887Z,5
2017-03-11T06:12:27.171Z,5
2017-03-11T06:13:37.846Z,5
2017-03-11T06:14:48.537Z,5
2017-03-11T06:15:59.571Z,5
2017-03-11T06:17:09.840Z,5
2017-03-11T06:18:19.766Z,5
2017-03-11T06:19:30.449Z,10
2017-03-11T06:20:40.369Z,10
2017-03-11T06:21:51.359Z,10
2017-03-11T06:23:02.021Z,10
2017-03-11T06:24:11.934Z,10
2017-03-11T06:25:22.238Z,10
2017-03-11T06:26:32.914Z,10
2017-03-11T06:27:44.227Z,10
2017-03-11T06:28:54.498Z,10
2017-03-11T06:30:04.768Z,15
2017-03-11T06:31:15.441Z,10
2017-03-11T06:32:25.764Z,10
2017-03-11T06:33:36.192Z,15
2017-03-11T06:34:46.486Z,15
2017-03-11T06:35:56.785Z,15
2017-03-11T06:37:06.719Z,15
2017-03-11T06:38:17.019Z,15
2017-03-11T06:39:27.446Z,15
2017-03-11T06:40:37.350Z,15
2017-03-11T06:41:47.988Z,15
2017-03-11T06:42:58.281Z,15
2017-03-11T06:44:07.489Z,15
2017-03-11T06:45:18.772Z,20
2017-03-11T06:46:30.218Z,20
2017-03-11T06:47:40.105Z,20
2017-03-11T06:48:50.406Z,20
2017-03-11T06:50:00.680Z,20
2017-03-11T06:51:10.847Z,20
2017-03-11T06:52:21.177Z,20
2017-03-11T06:53:31.475Z,20
2017-03-11T06:54:41.755Z,20
2017-03-11T06:55:52.426Z,20
2017-03-11T06:57:03.449Z,20
2017-03-11T06:58:13.323Z,25
2017-03-11T06:59:23.862Z,25
2017-03-11T07:00:34.418Z,25
2017-03-11T07:01:45.404Z,25
2017-03-11T07:02:56.631Z,25
2017-03-11T07:04:07.360Z,25
2017-03-11T07:05:16.859Z,30
2017-03-11T07:06:27.638Z,30
2017-03-11T07:07:37.920Z,30
2017-03-11T07:08:48.434Z,30
2017-03-11T07:09:58.646Z,30
2017-03-11T07:11:09.450Z,30
2017-03-11T07:12:20.095Z,25
2017-03-11T07:13:30.528Z,25
2017-03-11T07:14:40.212Z,25
2017-03-11T07:15:51.132Z,20
2017-03-11T07:17:01.944Z,20
2017-03-11T07:18:11.833Z,20
2017-03-11T07:19:22.135Z,20
2017-03-11T07:20:32.691Z,20
2017-03-11T07:21:42.962Z,20
2017-03-11T07:22:53.267Z,20
2017-03-11T07:24:03.155Z,20
2017-03-11T07:25:13.851Z,20
2017-03-11T07:26:24.673Z,20
2017-03-11T07:27:34.998Z,20
2017-03-11T07:28:45.290Z,20
2017-03-11T07:29:55.566Z,20
2017-03-11T07:31:05.497Z,20
2017-03-11T07:32:16.303Z,25
2017-03-11T07:33:27.001Z,25
2017-03-11T07:34:36.901Z,25
2017-03-11T07:35:46.809Z,25
2017-03-11T07:36:57.495Z,25
2017-03-11T07:38:07.315Z,25
2017-03-11T07:39:18.002Z,25
2017-03-11T07:40:28.279Z,25
2017-03-11T07:41:38.587Z,25
2017-03-11T07:42:48.473Z,25
2017-03-11T07:43:58.643Z,25
2017-03-11T07:45:09.317Z,25
2017-03-11T07:46:19.975Z,25
2017-03-11T07:47:30.654Z,25
2017-03-11T07:48:40.948Z,25
2017-03-11T07:49:51.715Z,25
2017-03-11T07:51:01.991Z,25
2017-03-11T07:52:12.275Z,25
2017-03-11T07:53:22.537Z,25
2017-03-11T07:54:32.822Z,25
2017-03-11T07:55:43.412Z,25
2017-03-11T07:56:53.681Z,25
2017-03-11T07:58:04.342Z,25
2017-03-11T07:59:15.027Z,25
2017-03-11T08:00:25.702Z,25
2017-03-11T08:01:36.537Z,25
2017-03-11T08:02:47.216Z,30
2017-03-11T08:03:57.535Z,30
2017-03-11T08:05:08.219Z,30
2017-03-11T08:06:18.916Z,30
2017-03-11T08:07:29.888Z,30
2017-03-11T08:08:40.178Z,30
2017-03-11T08:09:50.078Z,30
2017-03-11T08:11:00.766Z,30
2017-03-11T08:12:11.055Z,30
2017-03-11T08:13:21.997Z,30
2017-03-11T08:14:32.304Z,30
2017-03-11T08:15:42.191Z,30
2017-03-11T08:16:52.147Z,30
2017-03-11T08:18:02.062Z,30
2017-03-11T08:19:12.205Z,30
2017-03-11T08:20:22.883Z,30
2017-03-11T08:21:32.394Z,30
2017-03-11T08:22:43.077Z,30
2017-03-11T08:23:53.367Z,30
2017-03-11T08:25:04.360Z,30
2017-03-11T08:26:14.307Z,30
2017-03-11T08:27:24.981Z,30
2017-03-11T08:28:34.883Z,30
2017-03-11T08:29:45.169Z,30
2017-03-11T08:30:56.104Z,30
2017-03-11T08:32:06.379Z,30
2017-03-11T08:33:17.056Z,30
2017-03-11T08:34:27.386Z,30
2017-03-11T08:35:38.069Z,30
2017-03-11T08:36:48.124Z,30
2017-03-11T08:37:58.803Z,30
2017-03-11T08:39:09.484Z,30
2017-03-11T08:40:19.812Z,35
2017-03-11T08:41:30.144Z,35
2017-03-11T08:42:40.792Z,35
2017-03-11T08:43:51.474Z,40
2017-03-11T08:45:02.202Z,40
2017-03-11T08:46:12.893Z,40
2017-03-11T08:47:22.804Z,40
2017-03-11T08:48:33.210Z,40
2017-03-11T08:49:43.916Z,40
2017-03-11T08:50:54.615Z,40
2017-03-11T08:52:04.910Z,40
2017-03-11T08:53:14.820Z,35
2017-03-11T08:54:25.019Z,35
2017-03-11T08:55:35.307Z,35
2017-03-11T08:56:45.212Z,35
2017-03-11T08:57:55.895Z,35
2017-03-11T08:59:06.585Z,35
2017-03-11T09:00:17.193Z,35
2017-03-11T09:01:26.730Z,40
2017-03-11T09:02:37.039Z,40
2017-03-11T09:03:47.719Z,40
2017-03-11T09:04:57.645Z,40
2017-03-11T09:06:08.579Z,40
2017-03-11T09:07:19.250Z,40
2017-03-11T09:08:29.957Z,40
2017-03-11T09:09:40.274Z,40
2017-03-11T09:10:50.575Z,40
2017-03-11T09:12:01.893Z,40
2017-03-11T09:13:12.577Z,40
2017-03-11T09:14:23.291Z,40
2017-03-11T09:15:33.581Z,40
2017-03-11T09:16:44.549Z,40
2017-03-11T09:17:55.318Z,35
2017-03-11T09:19:05.628Z,35
2017-03-11T09:20:15.513Z,35
2017-03-11T09:21:26.212Z,40
2017-03-11T09:22:36.906Z,40
2017-03-11T09:23:46.905Z,35
2017-03-11T09:24:57.595Z,35
2017-03-11T09:26:08.293Z,35
2017-03-11T09:27:18.591Z,35
2017-03-11T09:28:28.917Z,35
2017-03-11T09:29:39.699Z,35
2017-03-11T09:30:50.376Z,40
2017-03-11T09:32:00.681Z,40
2017-03-11T09:33:11.386Z,40
2017-03-11T09:34:21.300Z,40
2017-03-11T09:35:31.757Z,40
2017-03-11T09:36:42.065Z,40
2017-03-11T09:37:52.358Z,40
2017-03-11T09:39:03.038Z,40
2017-03-11T09:40:13.359Z,40
2017-03-11T09:41:23.580Z,40
2017-03-11T09:42:34.265Z,45
2017-03-11T09:43:44.953Z,45
2017-03-11T09:44:55.656Z,45
2017-03-11T09:46:05.939Z,45
2017-03-11T09:47:16.975Z,45
2017-03-11T09:48:26.871Z,45
2017-03-11T09:49:36.769Z,40
2017-03-11T09:50:47.088Z,40
2017-03-11T09:51:57.393Z,40
2017-03-11T09:53:07.657Z,40
2017-03-11T09:54:17.959Z,40
2017-03-11T09:55:27.872Z,45
2017-03-11T09:56:38.180Z,45
2017-03-11T09:57:48.090Z,45
2017-03-11T09:58:58.759Z,45
2017-03-11T10:00:09.550Z,45
2017-03-11T10:01:19.064Z,45
2017-03-11T10:02:29.774Z,45
2017-03-11T10:03:40.049Z,45
2017-03-11T10:04:51.108Z,45
2017-03-11T10:06:01.416Z,45
2017-03-11T10:07:10.969Z,45
2017-03-11T10:08:20.890Z,45
2017-03-11T10:09:31.627Z,45
2017-03-11T10:10:42.488Z,45
2017-03-11T10:11:53.162Z,45
2017-03-11T10:13:03.046Z,45
2017-03-11T10:14:13.762Z,45
2017-03-11T10:15:23.674Z,45
2017-03-11T10:16:34.735Z,45
2017-03-11T10:17:45.438Z,45
2017-03-11T10:18:55.346Z,45
2017-03-11T10:20:06.061Z,40
2017-03-11T10:21:16.386Z,40
2017-03-11T10:22:26.386Z,40
2017-03-11T10:23:36.681Z,40
2017-03-11T10:24:47.378Z,40
2017-03-11T10:25:58.052Z,40
2017-03-11T10:27:08.755Z,40
2017-03-11T10:28:19.686Z,40
2017-03-11T10:29:30.048Z,40
2017-03-11T10:30:40.322Z,40
2017-03-11T10:31:51.327Z,40
2017-03-11T10:33:01.223Z,40
2017-03-11T10:34:11.473Z,40
2017-03-11T10:35:21.770Z,40
2017-03-11T10:36:31.290Z,40
2017-03-11T10:37:41.563Z,40
2017-03-11T10:38:51.463Z,40
2017-03-11T10:40:02.040Z,40
2017-03-11T10:41:12.772Z,40
2017-03-11T10:42:22.289Z,40
2017-03-11T10:43:32.589Z,40
2017-03-11T10:44:42.508Z,40
2017-03-11T10:45:53.423Z,40
2017-03-11T10:47:03.824Z,40
2017-03-11T10:48:14.483Z,40
2017-03-11T10:49:24.808Z,40
2017-03-11T10:50:35.087Z,40
2017-03-11T10:51:45.557Z,40
2017-03-11T10:52:56.264Z,40
2017-03-11T10:54:06.555Z,35
2017-03-11T10:55:17.236Z,35
2017-03-11T10:56:27.497Z,35
2017-03-11T10:57:37.539Z,40
2017-03-11T10:58:48.214Z,40
2017-03-11T10:59:58.903Z,40
2017-03-11T11:01:09.600Z,40
2017-03-11T11:02:19.898Z,40
2017-03-11T11:03:30.355Z,40
2017-03-11T11:04:40.251Z,40
2017-03-11T11:05:49.373Z,40
2017-03-11T11:06:59.663Z,40
2017-03-11T11:08:09.976Z,40
2017-03-11T11:09:20.581Z,40
2017-03-11T11:10:30.086Z,40
2017-03-11T11:11:40.809Z,40
2017-03-11T11:12:51.099Z,45
2017-03-11T11:14:02.362Z,45
2017-03-11T11:15:13.414Z,45
2017-03-11T11:16:23.744Z,45
2017-03-11T11:17:34.406Z,45
2017-03-11T11:18:44.321Z,45
2017-03-11T11:19:54.620Z,45
2017-03-11T11:21:05.245Z,45
2017-03-11T11:22:15.555Z,45
2017-03-11T11:23:25.859Z,45
2017-03-11T11:24:36.125Z,45
2017-03-11T11:25:46.050Z,45
2017-03-11T11:26:56.204Z,45
2017-03-11T11:28:06.512Z,45
2017-03-11T11:29:16.411Z,45
2017-03-11T11:30:26.702Z,45
2017-03-11T11:31:36.989Z,45
2017-03-11T11:32:47.443Z,45
2017-03-11T11:33:58.145Z,45
2017-03-11T11:35:07.667Z,45
2017-03-11T11:36:18.342Z,45
2017-03-11T11:37:28.636Z,45
2017-03-11T11:38:39.021Z,45
2017-03-11T11:39:49.696Z,45
2017-03-11T11:41:00.364Z,45
2017-03-11T11:42:10.255Z,45
2017-03-11T11:43:20.941Z,45
2017-03-11T11:44:31.741Z,40
2017-03-11T11:45:42.041Z,40
2017-03-11T11:46:52.324Z,40
2017-03-11T11:48:02.603Z,40
2017-03-11T11:49:12.899Z,40
2017-03-11T11:50:22.930Z,40
2017-03-11T11:51:32.049Z,40
2017-03-11T11:52:41.938Z,40
2017-03-11T11:53:52.221Z,40
2017-03-11T11:55:02.883Z,40
2017-03-11T11:56:13.443Z,40
2017-03-11T11:57:23.315Z,40
2017-03-11T11:58:33.218Z,40
2017-03-11T11:59:43.510Z,40
2017-03-11T12:00:53.781Z,40
2017-03-11T12:02:04.014Z,45
2017-03-11T12:03:14.295Z,45
2017-03-11T12:04:24.988Z,45
2017-03-11T12:05:35.680Z,45
2017-03-11T12:06:45.561Z,45
2017-03-11T12:07:55.702Z,45
2017-03-11T12:09:06.391Z,45
2017-03-11T12:10:16.298Z,45
2017-03-11T12:11:26.588Z,45
2017-03-11T12:12:36.887Z,45
2017-03-11T12:13:46.944Z,40
2017-03-11T12:14:57.245Z,40
2017-03-11T12:16:07.546Z,40
2017-03-11T12:17:18.241Z,40
2017-03-11T12:18:28.539Z,40
2017-03-11T12:19:39.124Z,40
2017-03-11T12:20:49.051Z,40
2017-03-11T12:21:58.973Z,40
2017-03-11T12:23:09.658Z,40
2017-03-11T12:24:20.344Z,35
2017-03-11T12:25:31.166Z,35
2017-03-11T12:26:41.859Z,35
2017-03-11T12:27:52.168Z,35
2017-03-11T12:29:02.462Z,35
2017-03-11T12:30:13.139Z,35
2017-03-11T12:31:23.676Z,35
2017-03-11T12:32:34.347Z,35
2017-03-11T12:33:45.032Z,35
2017-03-11T12:34:55.334Z,35
2017-03-11T12:36:05.255Z,35
2017-03-11T12:37:16.039Z,35
2017-03-11T12:38:26.716Z,35
2017-03-11T12:39:37.002Z,35
2017-03-11T12:40:47.208Z,35
2017-03-11T12:41:57.109Z,35
2017-03-11T12:43:08.070Z,30
2017-03-11T12:44:18.341Z,30
2017-03-11T12:45:28.544Z,30
2017-03-11T12:46:39.218Z,30
2017-03-11T12:47:49.142Z,30
2017-03-11T12:49:00.200Z,30
2017-03-11T12:50:10.918Z,30
2017-03-11T12:51:21.220Z,30
2017-03-11T12:52:31.121Z,30
2017-03-11T12:53:41.432Z,30
2017-03-11T12:54:51.599Z,30
2017-03-11T12:56:01.913Z,30
2017-03-11T12:57:12.603Z,30
2017-03-11T12:58:22.899Z,30
2017-03-11T12:59:33.183Z,25
2017-03-11T13:00:43.813Z,25
2017-03-11T13:01:54.513Z,25
2017-03-11T13:03:04.814Z,25
2017-03-11T13:04:15.481Z,25
2017-03-11T13:05:26.211Z,25
2017-03-11T13:06:36.579Z,25
2017-03-11T13:07:47.246Z,25
2017-03-11T13:08:57.913Z,25
2017-03-11T13:10:08.182Z,25
2017-03-11T13:11:18.487Z,25
2017-03-11T13:12:28.911Z,25
2017-03-11T13:13:39.607Z,25
2017-03-11T13:14:49.139Z,25
2017-03-11T13:15:59.822Z,25
2017-03-11T13:17:10.198Z,25
2017-03-11T13:18:20.654Z,25
2017-03-11T13:19:30.586Z,25
2017-03-11T13:20:40.511Z,25
2017-03-11T13:21:51.187Z,25
2017-03-11T13:23:01.890Z,25
2017-03-11T13:24:11.946Z,25
2017-03-11T13:25:21.859Z,25
2017-03-11T13:26:32.525Z,20
2017-03-11T13:27:42.425Z,20
2017-03-11T13:28:53.096Z,20
2017-03-11T13:30:03.928Z,20
2017-03-11T13:31:14.376Z,20
2017-03-11T13:32:24.464Z,20
2017-03-11T13:33:34.812Z,20
2017-03-11T13:34:45.514Z,20
2017-03-11T13:35:56.185Z,20
2017-03-11T13:37:06.912Z,20
2017-03-11T13:38:17.240Z,20
2017-03-11T13:39:27.569Z,20
2017-03-11T13:40:37.917Z,20
2017-03-11T13:41:48.616Z,20
2017-03-11T13:42:59.354Z,20
2017-03-11T13:44:09.296Z,20
2017-03-11T13:45:19.626Z,20
2017-03-11T13:46:30.369Z,20
2017-03-11T13:47:40.489Z,20
2017-03-11T13:48:51.196Z,20
2017-03-11T13:50:01.468Z,20
2017-03-11T13:51:11.765Z,20
2017-03-11T13:52:22.044Z,20
2017-03-11T13:53:33.069Z,25
2017-03-11T13:54:42.989Z,25
2017-03-11T13:55:52.906Z,20
2017-03-11T13:57:03.627Z,25
2017-03-11T13:58:14.308Z,25
2017-03-11T13:59:24.720Z,25
2017-03-11T14:00:34.243Z,25
2017-03-11T14:01:44.925Z,25
2017-03-11T14:02:55.233Z,25
2017-03-11T14:04:05.934Z,25
2017-03-11T14:05:16.377Z,25
2017-03-11T14:06:25.886Z,25
2017-03-11T14:07:36.563Z,25
2017-03-11T14:08:46.852Z,25
2017-03-11T14:09:57.119Z,25
2017-03-11T14:11:07.567Z,25
2017-03-11T14:12:17.834Z,25
2017-03-11T14:13:28.512Z,25
2017-03-11T14:14:39.197Z,25
2017-03-11T14:15:49.478Z,25
2017-03-11T14:16:59.528Z,25
2017-03-11T14:18:09.046Z,25
2017-03-11T14:19:19.330Z,25
2017-03-11T14:20:29.242Z,25
2017-03-11T14:21:39.531Z,25
2017-03-11T14:22:50.130Z,25
2017-03-11T14:24:00.027Z,25
2017-03-11T14:25:10.394Z,25
2017-03-11T14:26:20.308Z,25
2017-03-11T14:27:30.615Z,20
2017-03-11T14:28:41.029Z,20
2017-03-11T14:29:51.770Z,20
2017-03-11T14:31:02.119Z,20
2017-03-11T14:32:12.834Z,20
2017-03-11T14:33:23.516Z,20
2017-03-11T14:34:33.976Z,20
2017-03-11T14:35:44.320Z,20
2017-03-11T14:36:55.011Z,20
2017-03-11T14:38:05.325Z,20
2017-03-11T14:39:15.612Z,20
2017-03-11T14:40:26.611Z,20
2017-03-11T14:41:36.531Z,20
2017-03-11T14:42:46.877Z,20
2017-03-11T14:43:57.631Z,20
2017-03-11T14:45:08.322Z,20
2017-03-11T14:46:18.559Z,20
2017-03-11T14:47:28.477Z,20
2017-03-11T14:48:38.806Z,20
2017-03-11T14:49:49.121Z,20
2017-03-11T14:50:59.471Z,20
2017-03-11T14:52:10.118Z,20
2017-03-11T14:53:20.079Z,20
2017-03-11T14:54:29.997Z,20
2017-03-11T14:55:39.915Z,20
2017-03-11T14:56:50.248Z,20
2017-03-11T14:58:01.261Z,20
2017-03-11T14:59:11.598Z,15
2017-03-11T15:00:21.965Z,15
2017-03-11T15:01:32.675Z,15
2017-03-11T15:02:42.986Z,15
2017-03-11T15:03:53.311Z,15
2017-03-11T15:05:03.235Z,15
2017-03-11T15:06:12.737Z,15
2017-03-11T15:07:23.032Z,15
2017-03-11T15:08:33.315Z,15
2017-03-11T15:09:44.354Z,15
2017-03-11T15:10:54.312Z,15
2017-03-11T15:12:03.860Z,15
2017-03-11T15:13:14.171Z,15
2017-03-11T15:14:24.115Z,15
2017-03-11T15:15:34.916Z,15
2017-03-11T15:16:45.231Z,15
2017-03-11T15:17:55.583Z,15
2017-03-11T15:19:05.902Z,15
2017-03-11T15:20:16.193Z,15
2017-03-11T15:21:27.293Z,15
2017-03-11T15:22:38.380Z,15
2017-03-11T15:23:48.711Z,15
2017-03-11T15:24:59.464Z,15
2017-03-11T15:26:10.253Z,15
2017-03-11T15:27:21.334Z,15
2017-03-11T15:28:31.746Z,15
2017-03-11T15:29:42.476Z,15
2017-03-11T15:30:53.514Z,15
2017-03-11T15:32:03.866Z,10
2017-03-11T15:33:15.205Z,10
2017-03-11T15:34:25.747Z,10
2017-03-11T15:35:36.522Z,10
2017-03-11T15:36:47.244Z,10
2017-03-11T15:37:57.896Z,10
2017-03-11T15:39:09.077Z,10
2017-03-11T15:40:19.414Z,10
2017-03-11T15:41:29.708Z,10
2017-03-11T15:42:40.080Z,10
2017-03-11T15:43:50.413Z,10
2017-03-11T15:45:00.749Z,10
2017-03-11T15:46:11.066Z,10
2017-03-11T15:47:21.802Z,10
2017-03-11T15:48:32.436Z,15
2017-03-11T15:49:42.763Z,15
2017-03-11T15:50:53.320Z,15
2017-03-11T15:52:04.051Z,15
2017-03-11T15:53:15.755Z,15
2017-03-11T15:54:26.739Z,15
2017-03-11T15:55:37.728Z,15
2017-03-11T15:56:48.454Z,15
2017-03-11T15:59:08.160Z,10
2017-03-11T16:00:18.908Z,10
2017-03-11T16:01:28.872Z,10
2017-03-11T16:02:39.307Z,10
2017-03-11T16:03:49.681Z,10
2017-03-11T16:05:00.001Z,10
2017-03-11T16:06:10.331Z,10
2017-03-11T16:07:20.659Z,10
2017-03-11T16:08:30.963Z,10
2017-03-11T16:09:41.300Z,10
2017-03-11T16:10:51.615Z,10
2017-03-11T16:12:01.622Z,10
2017-03-11T16:13:11.870Z,10
2017-03-11T16:14:22.632Z,10
2017-03-11T16:15:32.948Z,10
2017-03-11T16:16:43.291Z,10
2017-03-11T16:17:53.618Z,10
2017-03-11T16:19:04.488Z,10
2017-03-11T16:20:15.219Z,10
2017-03-11T16:21:25.943Z,10
2017-03-11T16:22:36.256Z,10
2017-03-11T16:23:46.615Z,10
2017-03-11T16:24:57.032Z,10
2017-03-11T16:26:07.365Z,10
2017-03-11T16:27:16.903Z,10
2017-03-11T16:28:27.645Z,10
2017-03-11T16:29:38.376Z,10
2017-03-11T16:30:49.286Z,10
2017-03-11T16:31:59.621Z,10
2017-03-11T16:33:10.353Z,10
2017-03-11T16:34:20.701Z,10
2017-03-11T16:35:31.447Z,10
2017-03-11T16:36:42.570Z,10
2017-03-11T16:37:53.336Z,10
2017-03-11T16:39:03.672Z,5
2017-03-11T16:40:13.616Z,5
2017-03-11T16:41:23.952Z,5
2017-03-11T16:42:34.541Z,5
2017-03-11T16:43:45.259Z,5
2017-03-11T16:44:55.573Z,5
2017-03-11T16:46:06.301Z,5
2017-03-11T16:47:16.632Z,5
2017-03-11T16:48:27.216Z,5
2017-03-11T16:49:37.509Z,5
2017-03-11T16:50:47.821Z,5
2017-03-11T16:51:58.523Z,5
2017-03-11T16:53:08.833Z,5
2017-03-11T16:54:19.384Z,5
2017-03-11T16:55:30.066Z,5
2017-03-11T16:56:40.753Z,5
2017-03-11T16:57:50.682Z,5
2017-03-11T16:59:01.375Z,5